Time,TemperatureF,DewpointF,PressureIn,WindDirection,WindDirectionDegrees,WindSpeedMPH,WindSpeedGustMPH,Humidity,HourlyPrecipIn,Conditions,Clouds,dailyrainin,SolarRadiationWatts/m^2,SoftwareType,DateUTC
2013-05-11 00:06:00,59.0,51.0,29.79,SSW,194,3.0,10.0,76,0.00,,,0.00,0,weatherlink.com 1.10,2013-05-11 04:06:00,
2013-05-11 00:21:00,58.6,51.0,29.79,South,188,0.0,8.0,77,0.00,,,0.00,0,weatherlink.com 1.10,2013-05-11 04:21:00,
2013-05-11 00:36:00,58.3,51.0,29.79,South,186,0.0,7.0,78,0.00,,,0.00,0,weatherlink.com 1.10,2013-05-11 04:36:00,
2013-05-11 00:51:00,58.0,52.0,29.78,South,182,0.0,7.0,79,0.00,,,0.00,0,weatherlink.com 1.10,2013-05-11 04:51:00,
2013-05-11 01:06:00,57.5,52.0,29.78,SW,217,0.0,2.0,81,0.00,,,0.00,0,weatherlink.com 1.10,2013-05-11 05:06:00,
2013-05-11 01:21:00,57.1,52.0,29.77,SW,216,1.0,4.0,83,0.00,,,0.00,0,weatherlink.com 1.10,2013-05-11 05:21:00,
2013-05-11 01:36:00,57.2,52.0,29.76,SSW,208,0.0,4.0,83,0.00,,,0.00,0,weatherlink.com 1.10,2013-05-11 05:36:00,
2013-05-11 01:51:00,56.5,52.0,29.76,SSW,208,0.0,1.0,84,0.00,,,0.00,0,weatherlink.com 1.10,2013-05-11 05:51:00,
2013-05-11 02:06:00,56.6,52.0,29.75,South,177,1.0,7.0,84,0.00,,,0.00,0,weatherlink.com 1.10,2013-05-11 06:06:00,
2013-05-11 02:21:00,57.0,52.0,29.74,South,187,0.0,9.0,83,0.00,,,0.00,0,weatherlink.com 1.10,2013-05-11 06:21:00,
2013-05-11 02:36:00,57.7,53.0,29.73,NW,318,4.0,20.0,83,0.00,,,0.00,0,weatherlink.com 1.10,2013-05-11 06:36:00,
2013-05-11 02:51:00,59.0,53.0,29.73,SSW,193,2.0,11.0,80,0.00,,,0.00,0,weatherlink.com 1.10,2013-05-11 06:51:00,
2013-05-11 03:06:00,59.0,53.0,29.72,South,188,1.0,10.0,80,0.00,,,0.00,0,weatherlink.com 1.10,2013-05-11 07:06:00,
2013-05-11 03:21:00,58.0,52.0,29.72,SSW,202,0.0,6.0,81,0.00,,,0.00,0,weatherlink.com 1.10,2013-05-11 07:21:00,
2013-05-11 03:36:00,57.5,52.0,29.71,SSW,192,0.0,4.0,83,0.00,,,0.00,0,weatherlink.com 1.10,2013-05-11 07:36:00,
2013-05-11 03:51:00,57.2,52.0,29.71,South,191,2.0,5.0,83,0.00,,,0.00,0,weatherlink.com 1.10,2013-05-11 07:51:00,
2013-05-11 04:06:00,57.6,53.0,29.70,SW,218,1.0,10.0,83,0.00,,,0.00,0,weatherlink.com 1.10,2013-05-11 08:06:00,
2013-05-11 04:21:00,57.8,53.0,29.70,SSE,150,5.0,11.0,84,0.00,,,0.00,0,weatherlink.com 1.10,2013-05-11 08:21:00,
2013-05-11 04:36:00,56.8,53.0,29.69,South,169,0.0,8.0,87,0.00,,,0.00,0,weatherlink.com 1.10,2013-05-11 08:36:00,
2013-05-11 04:51:00,56.1,53.0,29.68,South,179,4.0,8.0,89,0.01,,,0.01,0,weatherlink.com 1.10,2013-05-11 08:51:00,
2013-05-11 05:06:00,55.2,53.0,29.67,SSE,163,2.0,9.0,92,0.02,,,0.02,0,weatherlink.com 1.10,2013-05-11 09:06:00,
2013-05-11 05:21:00,54.7,53.0,29.67,South,184,0.0,6.0,93,0.03,,,0.03,0,weatherlink.com 1.10,2013-05-11 09:21:00,
2013-05-11 05:36:00,54.5,53.0,29.68,SSW,202,0.0,5.0,94,0.03,,,0.03,0,weatherlink.com 1.10,2013-05-11 09:36:00,
2013-05-11 05:51:00,54.6,53.0,29.68,SSE,157,0.0,6.0,95,0.03,,,0.04,0,weatherlink.com 1.10,2013-05-11 09:51:00,
2013-05-11 06:06:00,54.7,54.0,29.68,SSE,158,1.0,7.0,96,0.03,,,0.05,0,weatherlink.com 1.10,2013-05-11 10:06:00,
2013-05-11 06:21:00,54.9,54.0,29.68,South,190,2.0,8.0,96,0.03,,,0.06,21,weatherlink.com 1.10,2013-05-11 10:21:00,
2013-05-11 06:36:00,55.1,54.0,29.67,South,169,0.0,9.0,96,0.03,,,0.06,39,weatherlink.com 1.10,2013-05-11 10:36:00,
2013-05-11 06:51:00,55.4,54.0,29.67,SSE,150,6.0,15.0,96,0.02,,,0.06,91,weatherlink.com 1.10,2013-05-11 10:51:00,
2013-05-11 07:06:00,55.7,55.0,29.67,South,174,8.0,14.0,96,0.01,,,0.06,76,weatherlink.com 1.10,2013-05-11 11:06:00,
2013-05-11 07:22:00,55.8,54.0,29.66,SSE,167,9.0,16.0,94,0.00,,,0.06,23,weatherlink.com 1.10,2013-05-11 11:22:00,
2013-05-11 07:37:00,55.9,54.0,29.66,SE,146,4.0,15.0,94,0.00,,,0.06,56,weatherlink.com 1.10,2013-05-11 11:37:00,
2013-05-11 07:52:00,55.9,54.0,29.66,South,169,4.0,20.0,94,0.00,,,0.06,37,weatherlink.com 1.10,2013-05-11 11:52:00,
2013-05-11 08:07:00,56.0,54.0,29.66,South,179,7.0,11.0,94,0.00,,,0.06,114,weatherlink.com 1.10,2013-05-11 12:07:00,
2013-05-11 08:22:00,56.7,55.0,29.66,South,182,7.0,13.0,94,0.00,,,0.06,316,weatherlink.com 1.10,2013-05-11 12:22:00,
2013-05-11 08:37:00,57.6,55.0,29.66,South,186,5.0,13.0,92,0.00,,,0.06,199,weatherlink.com 1.10,2013-05-11 12:37:00,
2013-05-11 08:53:00,57.5,55.0,29.66,SSW,208,7.0,16.0,92,0.00,,,0.06,134,weatherlink.com 1.10,2013-05-11 12:53:00,
2013-05-11 09:08:00,57.4,55.0,29.66,South,179,2.0,9.0,92,0.00,,,0.06,165,weatherlink.com 1.10,2013-05-11 13:08:00,
2013-05-11 09:23:00,58.7,56.0,29.65,SSW,193,0.0,18.0,91,0.00,,,0.06,329,weatherlink.com 1.10,2013-05-11 13:23:00,
2013-05-11 09:38:00,58.7,56.0,29.64,South,176,4.0,11.0,90,0.00,,,0.06,204,weatherlink.com 1.10,2013-05-11 13:38:00,
2013-05-11 09:53:00,58.9,56.0,29.65,South,180,5.0,16.0,90,0.00,,,0.06,158,weatherlink.com 1.10,2013-05-11 13:53:00,
2013-05-11 10:08:00,58.2,56.0,29.64,South,180,4.0,24.0,91,0.00,,,0.06,77,weatherlink.com 1.10,2013-05-11 14:08:00,
2013-05-11 10:23:00,58.1,56.0,29.64,SSE,147,0.0,14.0,92,0.00,,,0.06,257,weatherlink.com 1.10,2013-05-11 14:23:00,
2013-05-11 10:39:00,58.3,56.0,29.64,SSW,199,7.0,12.0,91,0.00,,,0.06,72,weatherlink.com 1.10,2013-05-11 14:39:00,
2013-05-11 10:54:00,57.7,55.0,29.64,South,180,6.0,19.0,92,0.00,,,0.06,54,weatherlink.com 1.10,2013-05-11 14:54:00,
2013-05-11 11:09:00,58.2,56.0,29.64,SE,143,2.0,14.0,92,0.00,,,0.06,109,weatherlink.com 1.10,2013-05-11 15:09:00,
2013-05-11 11:24:00,58.3,56.0,29.64,SSE,148,7.0,15.0,92,0.00,,,0.06,98,weatherlink.com 1.10,2013-05-11 15:24:00,
2013-05-11 11:39:00,58.4,56.0,29.64,South,190,10.0,15.0,92,0.00,,,0.06,81,weatherlink.com 1.10,2013-05-11 15:39:00,
2013-05-11 11:55:00,58.4,56.0,29.63,South,170,8.0,13.0,93,0.01,,,0.07,162,weatherlink.com 1.10,2013-05-11 15:55:00,
2013-05-11 12:09:00,58.9,57.0,29.63,South,191,2.0,12.0,92,0.01,,,0.07,120,weatherlink.com 1.10,2013-05-11 16:09:00,
2013-05-11 12:25:00,58.7,57.0,29.62,South,176,7.0,11.0,93,0.01,,,0.07,58,weatherlink.com 1.10,2013-05-11 16:25:00,
2013-05-11 12:41:00,58.5,57.0,29.62,SSE,167,7.0,14.0,93,0.03,,,0.09,171,weatherlink.com 1.10,2013-05-11 16:41:00,
2013-05-11 12:55:00,58.6,57.0,29.62,SSE,154,7.0,10.0,94,0.03,,,0.10,125,weatherlink.com 1.10,2013-05-11 16:55:00,
2013-05-11 13:11:00,59.1,58.0,29.62,SSW,197,5.0,9.0,96,0.05,,,0.12,410,weatherlink.com 1.10,2013-05-11 17:11:00,
2013-05-11 13:25:00,60.1,59.0,29.62,South,178,7.0,11.0,95,0.05,,,0.12,410,weatherlink.com 1.10,2013-05-11 17:25:00,
2013-05-11 13:41:00,59.8,58.0,29.61,SSE,148,5.0,9.0,94,0.03,,,0.12,98,weatherlink.com 1.10,2013-05-11 17:41:00,
2013-05-11 13:56:00,59.0,57.0,29.61,SSW,193,4.0,11.0,94,0.05,,,0.15,83,weatherlink.com 1.10,2013-05-11 17:56:00,
2013-05-11 14:11:00,59.0,58.0,29.61,SSE,150,0.0,8.0,95,0.15,,,0.27,244,weatherlink.com 1.10,2013-05-11 18:11:00,
2013-05-11 14:26:00,59.4,58.0,29.61,SSW,207,0.0,9.0,95,0.17,,,0.29,174,weatherlink.com 1.10,2013-05-11 18:26:00,
2013-05-11 14:41:00,59.8,58.0,29.61,South,185,5.0,11.0,94,0.17,,,0.29,241,weatherlink.com 1.10,2013-05-11 18:41:00,
2013-05-11 14:56:00,59.8,57.0,29.61,South,189,2.0,23.0,90,0.13,,,0.29,200,weatherlink.com 1.10,2013-05-11 18:56:00,
2013-05-11 15:12:00,59.5,57.0,29.60,South,190,2.0,7.0,91,0.02,,,0.29,163,weatherlink.com 1.10,2013-05-11 19:12:00,
2013-05-11 15:27:00,59.8,58.0,29.60,SSW,198,0.0,10.0,93,0.00,,,0.29,255,weatherlink.com 1.10,2013-05-11 19:27:00,
2013-05-11 15:42:00,60.0,58.0,29.61,SW,217,0.0,12.0,92,0.00,,,0.29,100,weatherlink.com 1.10,2013-05-11 19:42:00,
2013-05-11 15:57:00,59.3,57.0,29.60,SE,136,5.0,11.0,91,0.00,,,0.29,58,weatherlink.com 1.10,2013-05-11 19:57:00,
2013-05-11 16:12:00,59.0,56.0,29.61,SSW,200,1.0,14.0,90,0.00,,,0.29,46,weatherlink.com 1.10,2013-05-11 20:12:00,
2013-05-11 16:27:00,59.0,56.0,29.60,South,183,4.0,25.0,91,0.01,,,0.30,135,weatherlink.com 1.10,2013-05-11 20:27:00,
2013-05-11 16:42:00,59.0,57.0,29.60,South,184,2.0,11.0,93,0.01,,,0.30,135,weatherlink.com 1.10,2013-05-11 20:42:00,
2013-05-11 16:57:00,59.0,57.0,29.60,SSE,157,5.0,11.0,93,0.01,,,0.30,149,weatherlink.com 1.10,2013-05-11 20:57:00,
2013-05-11 17:12:00,59.0,57.0,29.60,South,184,5.0,10.0,93,0.01,,,0.30,77,weatherlink.com 1.10,2013-05-11 21:12:00,
2013-05-11 17:28:00,58.4,57.0,29.60,South,172,0.0,11.0,94,0.00,,,0.30,47,weatherlink.com 1.10,2013-05-11 21:28:00,
2013-05-11 17:43:00,58.2,56.0,29.60,SW,214,5.0,9.0,93,0.00,,,0.30,44,weatherlink.com 1.10,2013-05-11 21:43:00,
2013-05-11 17:58:00,58.0,56.0,29.60,SE,146,7.0,10.0,94,0.00,,,0.30,54,weatherlink.com 1.10,2013-05-11 21:58:00,
2013-05-11 18:13:00,58.1,56.0,29.60,SSE,160,0.0,11.0,93,0.00,,,0.30,102,weatherlink.com 1.10,2013-05-11 22:13:00,
2013-05-11 18:28:00,58.2,56.0,29.61,SSE,153,4.0,8.0,92,0.00,,,0.30,46,weatherlink.com 1.10,2013-05-11 22:28:00,
2013-05-11 18:44:00,57.7,55.0,29.62,SSW,194,0.0,13.0,92,0.00,,,0.30,40,weatherlink.com 1.10,2013-05-11 22:44:00,
2013-05-11 18:58:00,57.3,55.0,29.62,SSW,204,0.0,8.0,92,0.01,,,0.31,28,weatherlink.com 1.10,2013-05-11 22:58:00,
2013-05-11 19:14:00,56.9,55.0,29.63,South,172,4.0,11.0,92,0.01,,,0.31,21,weatherlink.com 1.10,2013-05-11 23:14:00,
2013-05-11 19:29:00,56.6,54.0,29.62,South,187,0.0,10.0,91,0.01,,,0.31,12,weatherlink.com 1.10,2013-05-11 23:29:00,
2013-05-11 19:44:00,56.5,54.0,29.64,South,178,0.0,21.0,90,0.01,,,0.31,9,weatherlink.com 1.10,2013-05-11 23:44:00,
2013-05-11 19:59:00,56.4,54.0,29.63,SSW,202,0.0,9.0,90,0.00,,,0.31,5,weatherlink.com 1.10,2013-05-11 23:59:00,
2013-05-11 20:15:00,55.8,53.0,29.63,SSW,199,0.0,12.0,90,0.00,,,0.31,0,weatherlink.com 1.10,2013-05-12 00:15:00,
2013-05-11 20:30:00,55.2,53.0,29.63,SSW,197,4.0,6.0,92,0.00,,,0.31,0,weatherlink.com 1.10,2013-05-12 00:30:00,
2013-05-11 20:45:00,55.1,53.0,29.62,SSW,198,0.0,7.0,93,0.00,,,0.31,0,weatherlink.com 1.10,2013-05-12 00:45:00,
2013-05-11 21:00:00,55.1,53.0,29.62,South,181,0.0,5.0,93,0.00,,,0.31,0,weatherlink.com 1.10,2013-05-12 01:00:00,
2013-05-11 21:15:00,55.3,53.0,29.62,SSW,209,4.0,4.0,93,0.00,,,0.31,0,weatherlink.com 1.10,2013-05-12 01:15:00,
2013-05-11 21:30:00,55.8,54.0,29.62,South,175,0.0,11.0,93,0.00,,,0.31,0,weatherlink.com 1.10,2013-05-12 01:30:00,
2013-05-11 21:45:00,55.7,54.0,29.62,South,179,0.0,7.0,92,0.00,,,0.31,0,weatherlink.com 1.10,2013-05-12 01:45:00,
2013-05-11 22:00:00,55.3,53.0,29.62,WNW,298,0.0,10.0,92,0.00,,,0.31,0,weatherlink.com 1.10,2013-05-12 02:00:00,
2013-05-11 22:15:00,54.9,53.0,29.62,WSW,255,0.0,7.0,92,0.00,,,0.31,0,weatherlink.com 1.10,2013-05-12 02:15:00,
2013-05-11 22:30:00,54.3,52.0,29.61,SSW,213,0.0,8.0,92,0.00,,,0.31,0,weatherlink.com 1.10,2013-05-12 02:30:00,
2013-05-11 22:45:00,53.6,51.0,29.61,WSW,250,0.0,6.0,92,0.00,,,0.31,0,weatherlink.com 1.10,2013-05-12 02:45:00,
2013-05-11 23:00:00,53.1,50.0,29.62,WNW,289,0.0,6.0,90,0.00,,,0.31,0,weatherlink.com 1.10,2013-05-12 03:00:00,
2013-05-11 23:15:00,52.3,50.0,29.62,SSE,155,6.0,7.0,91,0.00,,,0.31,0,weatherlink.com 1.10,2013-05-12 03:15:00,
2013-05-11 23:30:00,52.2,50.0,29.62,WNW,297,0.0,6.0,91,0.00,,,0.31,0,weatherlink.com 1.10,2013-05-12 03:30:00,
2013-05-11 23:45:00,52.1,49.0,29.62,NW,319,0.0,6.0,88,0.00,,,0.31,0,weatherlink.com 1.10,2013-05-12 03:45:00,